Time;durP1;ratioP1;P1;durP2;ratioP2;P2;SDS_P1;SDS_P2;PMS_P1;PMS_P2;Temp;Humidity;BMP_temperature;BMP_pressure;BME280_temperature;BME280_humidity;BME280_pressure;Samples;Min_cycle;Max_cycle;Signal;HPM_P1;HPM_P2
2023/01/03 00:01:32;;;;;;;200.95;97.88;;;;;;;;;;5054700;28;20372;-83
2023/01/03 00:04:18;;;;;;;196.07;91.88;;;;;;;;;;5054331;28;20048;-84
2023/01/03 00:07:04;;;;;;;225.45;99.82;;;;;;;;;;5065789;28;20458;-82
2023/01/03 00:09:49;;;;;;;242.63;107.55;;;;;;;;;;5056220;28;20033;-84
2023/01/03 00:12:35;;;;;;;208.95;95.60;;;;;;;;;;5069055;28;20364;-86
2023/01/03 00:15:21;;;;;;;176.27;82.00;;;;;;;;;;5074589;28;20486;-84
2023/01/03 00:18:06;;;;;;;253.48;112.68;;;;;;;;;;5060121;28;20477;-86
2023/01/03 00:20:51;;;;;;;257.38;115.13;;;;;;;;;;5060689;28;20037;-86
2023/01/03 00:23:38;;;;;;;267.95;124.63;;;;;;;;;;5056051;28;20045;-84
2023/01/03 00:26:23;;;;;;;234.38;112.35;;;;;;;;;;5054016;28;20037;-83
2023/01/03 00:29:10;;;;;;;199.43;98.57;;;;;;;;;;5056856;28;20045;-86
2023/01/03 00:31:57;;;;;;;202.40;93.97;;;;;;;;;;5056624;28;20494;-87
2023/01/03 00:34:44;;;;;;;198.18;96.70;;;;;;;;;;5075563;28;20036;-84
2023/01/03 00:37:29;;;;;;;211.15;95.80;;;;;;;;;;5062943;28;20044;-85
2023/01/03 00:40:16;;;;;;;218.88;102.53;;;;;;;;;;5056229;28;20052;-84
2023/01/03 00:46:07;;;;;;;237.50;113.47;;;;;;;;;;5076228;28;20041;-84
2023/01/03 00:48:52;;;;;;;218.52;107.43;;;;;;;;;;5077719;28;20037;-84
2023/01/03 00:51:40;;;;;;;241.13;112.20;;;;;;;;;;5054713;28;20041;-86
2023/01/03 00:54:25;;;;;;;233.45;116.22;;;;;;;;;;5056636;28;20044;-87
2023/01/03 00:57:11;;;;;;;219.57;110.43;;;;;;;;;;5056727;28;20399;-87
2023/01/03 00:59:56;;;;;;;239.60;116.75;;;;;;;;;;5060629;28;20040;-85
2023/01/03 01:02:52;;;;;;;224.18;109.93;;;;;;;;;;5052769;28;20052;-86
2023/01/03 01:05:37;;;;;;;242.88;116.03;;;;;;;;;;5059612;28;20033;-85
2023/01/03 01:08:23;;;;;;;231.63;114.20;;;;;;;;;;5053876;28;20044;-83
2023/01/03 01:11:10;;;;;;;239.30;117.30;;;;;;;;;;5073279;28;20040;-85
2023/01/03 01:13:55;;;;;;;214.00;103.90;;;;;;;;;;5067810;28;20093;-86
2023/01/03 01:16:41;;;;;;;213.57;107.05;;;;;;;;;;5072042;28;20040;-85
2023/01/03 01:19:44;;;;;;;215.60;104.90;;;;;;;;;;5069936;28;20041;-85
2023/01/03 01:22:30;;;;;;;184.38;87.75;;;;;;;;;;5052267;28;20412;-86
2023/01/03 01:25:19;;;;;;;163.63;80.20;;;;;;;;;;5053526;28;20056;-86
2023/01/03 01:28:15;;;;;;;143.65;64.80;;;;;;;;;;5074543;28;20049;-86
2023/01/03 01:31:15;;;;;;;147.07;64.10;;;;;;;;;;5073418;28;20040;-91
2023/01/03 01:34:06;;;;;;;153.23;67.82;;;;;;;;;;5059031;28;20041;-90
2023/01/03 01:36:51;;;;;;;157.65;76.10;;;;;;;;;;5074631;28;20041;-87
2023/01/03 01:39:44;;;;;;;136.32;60.08;;;;;;;;;;5074377;28;20410;-87
2023/01/03 01:45:51;;;;;;;207.63;96.45;;;;;;;;;;5007949;28;20041;-87
2023/01/03 01:48:39;;;;;;;232.63;110.00;;;;;;;;;;5073654;28;20040;-85
2023/01/03 01:51:39;;;;;;;262.75;126.32;;;;;;;;;;5053979;28;20044;-87
2023/01/03 01:54:52;;;;;;;266.10;124.20;;;;;;;;;;5046325;28;20486;-86
2023/01/03 01:58:08;;;;;;;280.60;131.02;;;;;;;;;;5035483;28;20041;-88
2023/01/03 02:01:07;;;;;;;269.52;123.78;;;;;;;;;;5040992;28;20368;-87
2023/01/03 02:04:00;;;;;;;270.35;124.32;;;;;;;;;;5020639;28;20050;-87
2023/01/03 02:06:48;;;;;;;261.33;121.15;;;;;;;;;;5033907;28;20495;-87
2023/01/03 02:09:49;;;;;;;;;;;;;;;;;;;;;
2023/01/03 02:13:30;;;;;;;272.98;125.13;;;;;;;;;;5037409;28;20045;-87
2023/01/03 02:16:35;;;;;;;280.00;130.48;;;;;;;;;;5038955;28;20049;-85
2023/01/03 02:19:53;;;;;;;293.67;140.63;;;;;;;;;;5027556;28;20400;-87
2023/01/03 02:22:52;;;;;;;283.35;141.30;;;;;;;;;;5037860;28;20037;-86
2023/01/03 02:25:49;;;;;;;251.88;124.47;;;;;;;;;;5042327;28;20041;-85
2023/01/03 02:28:59;;;;;;;247.45;123.85;;;;;;;;;;5037390;28;20037;-87
2023/01/03 02:31:54;;;;;;;265.30;127.90;;;;;;;;;;5036946;28;20049;-85
2023/01/03 02:34:54;;;;;;;263.98;129.20;;;;;;;;;;5042377;28;20368;-86
2023/01/03 02:38:09;;;;;;;228.30;114.03;;;;;;;;;;5042124;28;20053;-87
2023/01/03 02:41:24;;;;;;;234.45;113.80;;;;;;;;;;5040397;28;20037;-86
2023/01/03 02:44:20;;;;;;;238.18;112.63;;;;;;;;;;5049300;28;20041;-85
2023/01/03 02:47:10;;;;;;;226.57;111.63;;;;;;;;;;5041982;28;20491;-86
2023/01/03 02:49:58;;;;;;;253.95;129.32;;;;;;;;;;5039595;28;20053;-84
2023/01/03 02:52:46;;;;;;;257.38;126.38;;;;;;;;;;5036734;28;20045;-85
2023/01/03 02:55:32;;;;;;;260.33;122.45;;;;;;;;;;5045745;28;20045;-83
2023/01/03 02:58:27;;;;;;;243.60;122.50;;;;;;;;;;5060641;28;20053;-85
2023/01/03 03:01:13;;;;;;;;;;;;;;;;;;5068308;28;20049;-86
2023/01/03 03:04:00;;;;;;;232.75;109.40;;;;;;;;;;5057787;28;19913;-81
2023/01/03 03:06:58;;;;;;;256.10;123.55;;;;;;;;;;5055841;28;20048;-83
2023/01/03 03:16:04;;;;;;;246.50;121.07;;;;;;;;;;5059060;28;20044;-85
2023/01/03 03:19:00;;;;;;;260.52;122.30;;;;;;;;;;5060464;28;20041;-85
2023/01/03 03:24:53;;;;;;;264.52;125.72;;;;;;;;;;5062382;28;20503;-83
2023/01/03 03:30:51;;;;;;;232.80;116.40;;;;;;;;;;5058081;28;20029;-86
2023/01/03 03:33:55;;;;;;;216.00;105.30;;;;;;;;;;5076712;28;20044;-82
2023/01/03 03:36:53;;;;;;;236.40;119.15;;;;;;;;;;5055845;28;20482;-83
2023/01/03 03:46:16;;;;;;;245.02;121.22;;;;;;;;;;5055427;28;20036;-83
2023/01/03 03:52:18;;;;;;;237.85;115.15;;;;;;;;;;5055085;28;20044;-82
2023/01/03 03:55:10;;;;;;;224.82;115.07;;;;;;;;;;5070807;28;20041;-86
2023/01/03 03:58:01;;;;;;;242.82;119.18;;;;;;;;;;5042588;28;20053;-84
2023/01/03 04:00:50;;;;;;;227.75;115.78;;;;;;;;;;5052096;28;20034;-83
2023/01/03 04:03:38;;;;;;;224.93;109.95;;;;;;;;;;5036990;28;20049;-82
2023/01/03 04:06:46;;;;;;;226.00;114.43;;;;;;;;;;5019902;28;20495;-82
2023/01/03 04:09:32;;;;;;;209.70;105.40;;;;;;;;;;5041733;28;20364;-85
2023/01/03 04:12:17;;;;;;;220.02;109.40;;;;;;;;;;5023926;28;20049;-84
2023/01/03 04:16:05;;;;;;;219.05;102.60;;;;;;;;;;5036311;28;20486;-83
2023/01/03 04:18:51;;;;;;;201.38;97.03;;;;;;;;;;5039952;28;20041;-82
2023/01/03 04:21:41;;;;;;;209.50;105.00;;;;;;;;;;5033571;28;20491;-82
2023/01/03 04:24:32;;;;;;;210.00;102.28;;;;;;;;;;5012593;28;20399;-86
2023/01/03 04:27:28;;;;;;;199.45;99.63;;;;;;;;;;5025846;28;20478;-86
2023/01/03 04:30:22;;;;;;;198.57;101.97;;;;;;;;;;5026136;28;20041;-82
2023/01/03 04:33:20;;;;;;;198.13;101.45;;;;;;;;;;5025858;28;20045;-82
2023/01/03 04:36:08;;;;;;;208.32;103.75;;;;;;;;;;5019246;28;20041;-82
2023/01/03 04:38:53;;;;;;;208.52;106.65;;;;;;;;;;5025676;28;20053;-87
2023/01/03 04:41:43;;;;;;;230.93;110.50;;;;;;;;;;5039589;28;20108;-87
2023/01/03 04:44:39;;;;;;;212.57;106.65;;;;;;;;;;5039371;28;20053;-82
2023/01/03 04:47:31;;;;;;;205.65;105.05;;;;;;;;;;5039376;28;20045;-83
2023/01/03 04:50:35;;;;;;;205.55;101.57;;;;;;;;;;5020428;28;20045;-86
2023/01/03 04:53:28;;;;;;;188.90;90.90;;;;;;;;;;5032803;28;20037;-86
2023/01/03 04:56:28;;;;;;;185.15;92.43;;;;;;;;;;5008574;28;20430;-82
2023/01/03 04:59:32;;;;;;;230.57;118.40;;;;;;;;;;5025928;28;20041;-82
2023/01/03 05:02:30;;;;;;;191.40;95.38;;;;;;;;;;5039299;28;20041;-82
2023/01/03 05:05:28;;;;;;;178.35;88.07;;;;;;;;;;5025532;28;20487;-86
2023/01/03 05:08:18;;;;;;;173.63;89.47;;;;;;;;;;5039160;28;20045;-86
2023/01/03 05:11:06;;;;;;;193.27;91.55;;;;;;;;;;5039431;28;20045;-82
2023/01/03 05:13:51;;;;;;;181.63;88.75;;;;;;;;;;5011234;28;20045;-86
2023/01/03 05:16:39;;;;;;;176.10;88.65;;;;;;;;;;5018914;28;20041;-86
2023/01/03 05:19:27;;;;;;;185.15;84.22;;;;;;;;;;5039069;28;20042;-87
2023/01/03 05:28:23;;;;;;;195.77;88.85;;;;;;;;;;5039298;28;20042;-83
2023/01/03 05:31:09;;;;;;;154.65;79.97;;;;;;;;;;5033566;28;20037;-82
2023/01/03 05:33:55;;;;;;;164.25;80.35;;;;;;;;;;5033465;28;20049;-87
2023/01/03 05:36:40;;;;;;;166.23;84.65;;;;;;;;;;5033724;28;20049;-87
2023/01/03 05:39:26;;;;;;;178.60;88.03;;;;;;;;;;5038795;28;20046;-87
2023/01/03 05:42:12;;;;;;;174.32;80.35;;;;;;;;;;5025318;28;20394;-82
2023/01/03 05:44:57;;;;;;;185.07;87.97;;;;;;;;;;5032545;28;20037;-82
2023/01/03 05:47:42;;;;;;;164.85;82.50;;;;;;;;;;5033321;28;20045;-82
2023/01/03 05:50:27;;;;;;;166.52;80.03;;;;;;;;;;5033182;28;20033;-82
2023/01/03 05:53:13;;;;;;;182.02;85.72;;;;;;;;;;5025039;28;20042;-82
2023/01/03 05:56:03;;;;;;;158.05;83.00;;;;;;;;;;5032181;28;20053;-87
2023/01/03 05:58:49;;;;;;;168.43;80.63;;;;;;;;;;5055904;28;20040;-87
2023/01/03 06:01:44;;;;;;;;;;;;;;;;;;;;;
2023/01/03 06:04:43;;;;;;;157.50;76.25;;;;;;;;;;5077489;28;20045;-86
2023/01/03 06:07:38;;;;;;;167.02;81.63;;;;;;;;;;5048398;28;20045;-86
2023/01/03 06:10:27;;;;;;;161.18;79.40;;;;;;;;;;5055835;28;20041;-82
2023/01/03 06:13:12;;;;;;;152.15;75.90;;;;;;;;;;5076983;28;20048;-84
2023/01/03 06:19:15;;;;;;;157.70;78.15;;;;;;;;;;5056306;28;20052;-82
2023/01/03 06:22:03;;;;;;;156.75;78.93;;;;;;;;;;5076207;28;20037;-88
2023/01/03 06:24:55;;;;;;;166.80;85.40;;;;;;;;;;5062552;28;20490;-88
2023/01/03 06:27:40;;;;;;;168.32;85.22;;;;;;;;;;5056280;28;20040;-85
2023/01/03 06:30:28;;;;;;;170.85;88.45;;;;;;;;;;5056377;28;20045;-83
2023/01/03 06:33:28;;;;;;;175.13;89.30;;;;;;;;;;5049080;28;20040;-84
2023/01/03 06:36:36;;;;;;;163.40;84.13;;;;;;;;;;5076276;28;20490;-90
2023/01/03 06:39:41;;;;;;;162.20;81.43;;;;;;;;;;5048429;28;20044;-88
2023/01/03 06:42:42;;;;;;;159.40;81.10;;;;;;;;;;5061647;28;20045;-89
2023/01/03 06:54:43;;;;;;;335.27;166.85;;;;;;;;;;5075570;28;20045;-85
2023/01/03 06:57:29;;;;;;;259.98;137.48;;;;;;;;;;5054934;28;20049;-89
2023/01/03 07:00:17;;;;;;;267.70;136.45;;;;;;;;;;5061672;28;20045;-89
2023/01/03 07:03:03;;;;;;;246.68;137.45;;;;;;;;;;5055597;28;20049;-86
2023/01/03 07:05:52;;;;;;;261.83;135.90;;;;;;;;;;5054617;28;20372;-85
2023/01/03 07:08:37;;;;;;;237.45;133.00;;;;;;;;;;5053570;28;20041;-86
2023/01/03 07:11:25;;;;;;;235.60;130.77;;;;;;;;;;5061606;28;20382;-85
2023/01/03 07:14:17;;;;;;;192.02;103.18;;;;;;;;;;5061432;28;20048;-90
2023/01/03 07:17:06;;;;;;;170.55;92.45;;;;;;;;;;5061461;28;20049;-90
2023/01/03 07:19:57;;;;;;;179.00;93.70;;;;;;;;;;5054229;28;20049;-85
2023/01/03 07:22:51;;;;;;;184.65;103.35;;;;;;;;;;5054337;28;20045;-90
2023/01/03 07:25:40;;;;;;;167.38;91.88;;;;;;;;;;5046952;28;20036;-90
2023/01/03 07:28:30;;;;;;;176.65;95.05;;;;;;;;;;5074500;28;20048;-90
2023/01/03 07:31:22;;;;;;;182.85;100.68;;;;;;;;;;5068244;28;20053;-84
2023/01/03 07:34:19;;;;;;;181.38;103.15;;;;;;;;;;5060834;28;20049;-84
2023/01/03 07:37:30;;;;;;;212.73;122.38;;;;;;;;;;5062900;28;20045;-84
2023/01/03 07:40:26;;;;;;;237.73;133.60;;;;;;;;;;5060765;28;20041;-84
2023/01/03 07:46:20;;;;;;;259.38;146.20;;;;;;;;;;5074958;28;20049;-89
2023/01/03 07:49:09;;;;;;;256.85;143.13;;;;;;;;;;5054020;28;20036;-84
2023/01/03 07:51:55;;;;;;;231.82;130.20;;;;;;;;;;5054528;28;20045;-89
2023/01/03 07:54:43;;;;;;;209.07;119.22;;;;;;;;;;5060810;28;20045;-86
2023/01/03 07:57:41;;;;;;;190.32;102.65;;;;;;;;;;5060335;28;20045;-88
2023/01/03 08:01:13;;;;;;;;;;;;;;;;;;;;;
2023/01/03 08:05:01;;;;;;;;;;;;;;;;;;;;;
2023/01/03 08:16:01;;;;;;;159.38;84.90;;;;;;;;;;5015515;28;20036;-85
2023/01/03 08:18:53;;;;;;;158.15;85.00;;;;;;;;;;5046758;28;20037;-91
2023/01/03 08:21:44;;;;;;;177.65;96.90;;;;;;;;;;5066704;28;20040;-86
2023/01/03 08:24:37;;;;;;;199.95;109.85;;;;;;;;;;5073545;28;20041;-85
2023/01/03 08:27:23;;;;;;;192.60;107.60;;;;;;;;;;5059447;28;20048;-83
2023/01/03 08:30:09;;;;;;;170.50;95.53;;;;;;;;;;5073890;28;20470;-83
2023/01/03 08:32:56;;;;;;;151.40;85.13;;;;;;;;;;5045681;28;20045;-88
2023/01/03 08:35:47;;;;;;;129.40;71.68;;;;;;;;;;5073808;28;20037;-83
2023/01/03 08:38:39;;;;;;;143.73;73.15;;;;;;;;;;5052584;28;20036;-88
2023/01/03 08:41:28;;;;;;;155.13;84.68;;;;;;;;;;5053454;28;20474;-83
2023/01/03 08:44:14;;;;;;;160.93;87.60;;;;;;;;;;5045739;28;20045;-84
2023/01/03 08:47:06;;;;;;;130.93;72.78;;;;;;;;;;5053802;28;20482;-83
2023/01/03 08:49:56;;;;;;;51.58;29.05;;;;;;;;;;5059484;28;20029;-84
2023/01/03 08:52:42;;;;;;;82.55;46.88;;;;;;;;;;5053960;28;20382;-83
2023/01/03 08:55:28;;;;;;;75.40;42.42;;;;;;;;;;5072103;28;20486;-89
2023/01/03 08:58:14;;;;;;;73.20;43.17;;;;;;;;;;5066510;28;20482;-84
2023/01/03 09:01:03;;;;;;;80.78;42.40;;;;;;;;;;5044780;28;20422;-84
2023/01/03 09:03:50;;;;;;;67.18;38.38;;;;;;;;;;5045445;28;20049;-84
2023/01/03 09:06:35;;;;;;;86.03;42.45;;;;;;;;;;5052479;28;20064;-89
2023/01/03 09:09:20;;;;;;;70.80;37.13;;;;;;;;;;5059214;28;20037;-84
2023/01/03 09:12:05;;;;;;;71.50;36.95;;;;;;;;;;5073187;28;20478;-84
2023/01/03 09:14:57;;;;;;;59.30;35.15;;;;;;;;;;5052567;28;20048;-89
2023/01/03 09:17:43;;;;;;;65.95;35.70;;;;;;;;;;5066838;28;20490;-89
2023/01/03 09:20:32;;;;;;;53.10;27.58;;;;;;;;;;5052190;28;20037;-90
2023/01/03 09:23:17;;;;;;;51.58;29.88;;;;;;;;;;5059609;28;20045;-87
2023/01/03 09:26:03;;;;;;;48.47;28.05;;;;;;;;;;5053495;28;20390;-84
2023/01/03 09:28:51;;;;;;;48.88;27.45;;;;;;;;;;5059355;28;20508;-90
2023/01/03 09:31:39;;;;;;;40.97;24.13;;;;;;;;;;5055344;28;20045;-90
2023/01/03 09:34:26;;;;;;;37.75;19.92;;;;;;;;;;5070557;28;20037;-91
2023/01/03 09:37:17;;;;;;;38.83;22.17;;;;;;;;;;5049252;28;20048;-85
2023/01/03 09:40:14;;;;;;;22.75;11.63;;;;;;;;;;5056136;28;20041;-85
2023/01/03 09:43:36;;;;;;;24.15;12.88;;;;;;;;;;5077130;28;20048;-92
2023/01/03 09:46:35;;;;;;;25.15;14.52;;;;;;;;;;5049546;28;20048;-85
2023/01/03 09:49:26;;;;;;;25.33;13.68;;;;;;;;;;5070018;28;20045;-85
2023/01/03 10:06:04;;;;;;;78.50;40.13;;;;;;;;;;5063480;28;20466;-78
2023/01/03 10:09:07;;;;;;;54.42;31.60;;;;;;;;;;5056618;28;20045;-78
2023/01/03 10:11:55;;;;;;;53.92;30.80;;;;;;;;;;5056473;28;20045;-79
2023/01/03 10:14:49;;;;;;;52.95;26.33;;;;;;;;;;5057197;28;20391;-77
2023/01/03 10:18:19;;;;;;;48.97;31.25;;;;;;;;;;5056372;28;20040;-79
2023/01/03 10:21:07;;;;;;;83.13;41.38;;;;;;;;;;5053809;28;20045;-77
2023/01/03 10:23:53;;;;;;;63.83;40.13;;;;;;;;;;5056678;28;20037;-78
2023/01/03 10:26:38;;;;;;;70.30;39.55;;;;;;;;;;5056840;28;20041;-79
2023/01/03 10:29:24;;;;;;;76.90;40.50;;;;;;;;;;5069375;28;20052;-78
2023/01/03 10:32:32;;;;;;;62.55;38.22;;;;;;;;;;5062876;28;20470;-77
2023/01/03 10:35:31;;;;;;;61.65;38.15;;;;;;;;;;5056287;28;20033;-77
2023/01/03 10:38:17;;;;;;;65.88;36.70;;;;;;;;;;5056137;28;20045;-78
2023/01/03 10:41:03;;;;;;;62.25;36.13;;;;;;;;;;5055806;28;20033;-77
2023/01/03 10:44:00;;;;;;;44.83;24.25;;;;;;;;;;5056249;28;20045;-80
2023/01/03 10:46:52;;;;;;;53.60;30.30;;;;;;;;;;5056374;28;20041;-78
2023/01/03 10:49:38;;;;;;;31.58;20.13;;;;;;;;;;5056161;28;20045;-78
2023/01/03 10:52:29;;;;;;;34.95;21.25;;;;;;;;;;5055886;28;20041;-79
2023/01/03 10:55:17;;;;;;;32.95;20.77;;;;;;;;;;5055894;28;20049;-79
2023/01/03 10:58:20;;;;;;;44.25;23.05;;;;;;;;;;5062201;28;20482;-80
2023/01/03 11:01:20;;;;;;;34.92;20.90;;;;;;;;;;5055378;28;20041;-79
2023/01/03 11:04:14;;;;;;;34.85;19.33;;;;;;;;;;5061932;28;20036;-79
2023/01/03 11:07:08;;;;;;;43.22;23.13;;;;;;;;;;5055730;28;20041;-79
2023/01/03 11:09:55;;;;;;;;;;;;;;;;;;5062600;28;20037;-78
2023/01/03 11:12:41;;;;;;;40.42;19.35;;;;;;;;;;5054422;28;19912;-78
2023/01/03 11:15:38;;;;;;;28.35;17.25;;;;;;;;;;5055724;28;20462;-78
2023/01/03 11:18:26;;;;;;;33.03;19.75;;;;;;;;;;5055046;28;20044;-82
2023/01/03 11:21:22;;;;;;;31.33;19.00;;;;;;;;;;5074523;28;20045;-78
2023/01/03 11:24:30;;;;;;;29.30;17.90;;;;;;;;;;5062686;28;20049;-77
2023/01/03 11:27:30;;;;;;;39.47;22.27;;;;;;;;;;5068109;28;20473;-78
2023/01/03 11:30:44;;;;;;;38.60;22.98;;;;;;;;;;5061837;28;20085;-78
2023/01/03 11:34:08;;;;;;;31.50;18.10;;;;;;;;;;5054769;28;20044;-80
2023/01/03 11:36:57;;;;;;;40.42;23.60;;;;;;;;;;5054662;28;20049;-79
2023/01/03 11:40:12;;;;;;;24.73;15.75;;;;;;;;;;5054799;28;20041;-79
2023/01/03 11:43:03;;;;;;;28.75;15.15;;;;;;;;;;5060898;28;20048;-80
2023/01/03 11:46:05;;;;;;;26.30;15.98;;;;;;;;;;5055321;28;20041;-80
2023/01/03 11:49:08;;;;;;;26.10;15.63;;;;;;;;;;5055998;28;20045;-80
2023/01/03 11:52:18;;;;;;;13.73;8.52;;;;;;;;;;5055752;28;20037;-78
2023/01/03 11:55:16;;;;;;;22.83;10.27;;;;;;;;;;5061340;28;20045;-78
2023/01/03 11:58:31;;;;;;;15.18;9.55;;;;;;;;;;5055313;28;20045;-78
2023/01/03 12:01:27;;;;;;;21.50;11.60;;;;;;;;;;5054782;28;20041;-79
2023/01/03 12:04:47;;;;;;;20.40;10.10;;;;;;;;;;5054901;28;20049;-77
2023/01/03 12:08:13;;;;;;;23.58;12.70;;;;;;;;;;5054295;28;20037;-81
2023/01/03 12:11:18;;;;;;;22.00;10.57;;;;;;;;;;5048989;28;20474;-84
2023/01/03 12:14:09;;;;;;;17.77;9.60;;;;;;;;;;5055701;28;20049;-83
2023/01/03 12:17:01;;;;;;;14.07;8.80;;;;;;;;;;5054416;28;20037;-80
2023/01/03 12:20:23;;;;;;;15.48;9.90;;;;;;;;;;5055847;28;20045;-82
2023/01/03 12:23:29;;;;;;;23.20;9.82;;;;;;;;;;5067420;28;20049;-80
2023/01/03 12:26:16;;;;;;;24.77;14.02;;;;;;;;;;5054215;28;20049;-80
2023/01/03 12:29:25;;;;;;;15.10;8.73;;;;;;;;;;5053998;28;20040;-84
2023/01/03 12:32:41;;;;;;;20.92;10.13;;;;;;;;;;5074001;28;20045;-82
2023/01/03 12:35:38;;;;;;;7.95;4.30;;;;;;;;;;5054214;28;20040;-78
2023/01/03 12:38:30;;;;;;;20.52;10.65;;;;;;;;;;5053868;28;20052;-80
2023/01/03 12:41:30;;;;;;;16.20;7.53;;;;;;;;;;5053840;28;20033;-82
2023/01/03 12:44:20;;;;;;;19.50;9.38;;;;;;;;;;5060141;28;20052;-82
2023/01/03 12:47:11;;;;;;;19.48;9.32;;;;;;;;;;5053845;28;20036;-80
2023/01/03 12:50:10;;;;;;;12.32;7.20;;;;;;;;;;5053716;28;20048;-82
2023/01/03 12:53:28;;;;;;;8.13;5.13;;;;;;;;;;5053305;28;20044;-82
2023/01/03 12:56:36;;;;;;;11.55;6.53;;;;;;;;;;5055488;28;20483;-80
2023/01/03 12:59:46;;;;;;;20.38;12.50;;;;;;;;;;5053166;28;20052;-79
2023/01/03 13:02:44;;;;;;;24.38;13.38;;;;;;;;;;5053007;28;20040;-82
2023/01/03 13:05:46;;;;;;;21.05;10.93;;;;;;;;;;5052475;28;20044;-79
2023/01/03 13:08:43;;;;;;;16.40;9.27;;;;;;;;;;5060098;28;20044;-79
2023/01/03 13:11:57;;;;;;;16.15;9.00;;;;;;;;;;5053644;28;20041;-79
2023/01/03 13:15:13;;;;;;;15.45;9.10;;;;;;;;;;5060093;28;20052;-82
2023/01/03 13:18:19;;;;;;;13.45;7.90;;;;;;;;;;5060195;28;20470;-81
2023/01/03 13:21:42;;;;;;;27.75;11.27;;;;;;;;;;5053086;28;20041;-78
2023/01/03 13:24:42;;;;;;;24.40;12.02;;;;;;;;;;5066415;28;20041;-81
2023/01/03 13:27:36;;;;;;;24.17;12.95;;;;;;;;;;5053301;28;20053;-82
2023/01/03 13:30:25;;;;;;;22.27;10.77;;;;;;;;;;5059627;28;20041;-79
2023/01/03 13:33:10;;;;;;;16.48;9.13;;;;;;;;;;5059527;28;20414;-81
2023/01/03 13:35:59;;;;;;;27.15;9.70;;;;;;;;;;5053538;28;20390;-78
2023/01/03 13:38:44;;;;;;;25.55;11.98;;;;;;;;;;5073265;28;20474;-79
2023/01/03 13:41:34;;;;;;;22.88;11.50;;;;;;;;;;5052700;28;20386;-79
2023/01/03 13:44:23;;;;;;;33.15;12.48;;;;;;;;;;5053223;28;20045;-79
2023/01/03 13:47:22;;;;;;;37.67;17.35;;;;;;;;;;5052690;28;20221;-81
2023/01/03 13:50:37;;;;;;;25.48;12.27;;;;;;;;;;5053327;28;20049;-78
2023/01/03 13:53:22;;;;;;;31.40;13.88;;;;;;;;;;5051215;28;20045;-79
2023/01/03 13:56:14;;;;;;;25.83;12.13;;;;;;;;;;5052495;28;20410;-79
2023/01/03 13:59:09;;;;;;;40.70;16.50;;;;;;;;;;5053127;28;20044;-79
2023/01/03 14:02:09;;;;;;;100.20;34.97;;;;;;;;;;5051724;28;20041;-80
2023/01/03 14:05:31;;;;;;;25.95;14.68;;;;;;;;;;5052768;28;20045;-80
2023/01/03 14:08:32;;;;;;;43.67;21.10;;;;;;;;;;5052423;28;20037;-79
2023/01/03 14:11:52;;;;;;;32.45;18.70;;;;;;;;;;5066217;28;20037;-79
2023/01/03 14:14:40;;;;;;;51.13;25.67;;;;;;;;;;5052650;28;20045;-79
2023/01/03 14:17:32;;;;;;;49.45;26.42;;;;;;;;;;5061085;28;20494;-82
2023/01/03 14:20:27;;;;;;;36.58;21.27;;;;;;;;;;5063061;28;20048;-82
2023/01/03 14:23:15;;;;;;;35.08;18.77;;;;;;;;;;5056388;28;20478;-82
2023/01/03 14:26:15;;;;;;;66.03;20.65;;;;;;;;;;5062873;28;20052;-79
2023/01/03 14:29:17;;;;;;;58.92;27.80;;;;;;;;;;5062582;28;20048;-81
2023/01/03 14:32:02;;;;;;;62.30;28.98;;;;;;;;;;5056463;28;20479;-81
2023/01/03 14:34:48;;;;;;;54.15;30.20;;;;;;;;;;5056440;28;20037;-81
2023/01/03 14:37:33;;;;;;;51.55;28.45;;;;;;;;;;5056078;28;20049;-81
2023/01/03 14:40:20;;;;;;;56.47;28.80;;;;;;;;;;5062736;28;20044;-79
2023/01/03 14:43:04;;;;;;;87.20;45.38;;;;;;;;;;5056074;28;20399;-79
2023/01/03 14:45:59;;;;;;;103.40;55.80;;;;;;;;;;5056135;28;20049;-79
2023/01/03 14:48:49;;;;;;;131.32;75.93;;;;;;;;;;5062742;28;20486;-82
2023/01/03 14:51:36;;;;;;;191.32;110.47;;;;;;;;;;5055704;28;20045;-81
2023/01/03 14:54:24;;;;;;;206.00;133.43;;;;;;;;;;5062699;28;20375;-79
2023/01/03 14:57:39;;;;;;;250.95;163.73;;;;;;;;;;5054994;28;20053;-81
2023/01/03 15:00:28;;;;;;;263.23;162.25;;;;;;;;;;5053826;28;20371;-78
2023/01/03 15:03:13;;;;;;;220.18;130.35;;;;;;;;;;5056228;28;20467;-80
2023/01/03 15:05:59;;;;;;;181.75;100.82;;;;;;;;;;5055643;28;20048;-82
2023/01/03 15:08:47;;;;;;;132.43;68.75;;;;;;;;;;5075304;28;20048;-82
2023/01/03 15:11:54;;;;;;;107.88;54.28;;;;;;;;;;5075125;28;20045;-80
2023/01/03 15:14:39;;;;;;;118.82;57.50;;;;;;;;;;5061215;28;20044;-80
2023/01/03 15:17:25;;;;;;;103.10;54.58;;;;;;;;;;5068450;28;20474;-79
2023/01/03 15:20:16;;;;;;;155.25;79.18;;;;;;;;;;5056620;28;20052;-80
2023/01/03 15:23:25;;;;;;;146.52;70.78;;;;;;;;;;5071942;28;20379;-80
2023/01/03 15:26:18;;;;;;;157.18;82.35;;;;;;;;;;5075000;28;20044;-82
2023/01/03 15:29:07;;;;;;;202.40;85.50;;;;;;;;;;5074357;28;20049;-80
2023/01/03 15:31:52;;;;;;;175.57;78.25;;;;;;;;;;5069435;28;20049;-81
2023/01/03 15:34:40;;;;;;;209.80;94.45;;;;;;;;;;5055196;28;20045;-81
2023/01/03 15:37:25;;;;;;;140.80;72.38;;;;;;;;;;5054981;28;20490;-79
2023/01/03 15:40:12;;;;;;;134.25;73.63;;;;;;;;;;5054966;28;20036;-81
2023/01/03 15:43:20;;;;;;;191.45;105.38;;;;;;;;;;5060313;28;20045;-79
2023/01/03 15:46:15;;;;;;;140.15;76.25;;;;;;;;;;5054655;28;20375;-79
2023/01/03 15:49:02;;;;;;;111.25;54.72;;;;;;;;;;5054762;28;20041;-80
2023/01/03 15:51:47;;;;;;;149.40;71.88;;;;;;;;;;5060153;28;20045;-79
2023/01/03 15:54:33;;;;;;;589.90;354.65;;;;;;;;;;5061214;28;20486;-80
2023/01/03 15:57:21;;;;;;;270.00;137.80;;;;;;;;;;5054321;28;20049;-79
2023/01/03 16:00:10;;;;;;;201.00;99.88;;;;;;;;;;5054758;28;20045;-79
2023/01/03 16:02:56;;;;;;;494.73;251.48;;;;;;;;;;5054144;28;20040;-78
2023/01/03 16:05:42;;;;;;;575.78;315.75;;;;;;;;;;5054357;28;20040;-79
2023/01/03 16:08:32;;;;;;;354.63;165.23;;;;;;;;;;5054884;28;20487;-79
2023/01/03 16:11:22;;;;;;;331.58;169.10;;;;;;;;;;5054285;28;20036;-80
2023/01/03 16:14:15;;;;;;;286.38;143.30;;;;;;;;;;5054204;28;20050;-79
2023/01/03 16:17:02;;;;;;;236.43;117.70;;;;;;;;;;5054058;28;20037;-81
2023/01/03 16:19:53;;;;;;;229.73;117.95;;;;;;;;;;5054401;28;20036;-81
2023/01/03 16:22:46;;;;;;;257.85;123.38;;;;;;;;;;5054213;28;20490;-80
2023/01/03 16:25:31;;;;;;;210.48;112.72;;;;;;;;;;5060783;28;20036;-80
2023/01/03 16:28:23;;;;;;;210.65;120.03;;;;;;;;;;5054094;28;20040;-81
2023/01/03 16:31:15;;;;;;;221.82;123.65;;;;;;;;;;5054007;28;20045;-81
2023/01/03 16:34:02;;;;;;;213.18;115.15;;;;;;;;;;5054158;28;20049;-79
2023/01/03 16:36:48;;;;;;;155.50;86.65;;;;;;;;;;5053889;28;20048;-81
2023/01/03 16:39:35;;;;;;;128.20;65.20;;;;;;;;;;5053978;28;20081;-80
2023/01/03 16:42:26;;;;;;;111.13;57.58;;;;;;;;;;5053639;28;20478;-81
2023/01/03 16:45:12;;;;;;;127.78;62.83;;;;;;;;;;5053180;28;20032;-79
2023/01/03 16:47:58;;;;;;;149.55;75.70;;;;;;;;;;5055075;28;20049;-80
2023/01/03 16:50:44;;;;;;;194.20;100.75;;;;;;;;;;5054724;28;20045;-79
2023/01/03 16:53:38;;;;;;;177.88;93.57;;;;;;;;;;5055528;28;20052;-81
2023/01/03 16:56:29;;;;;;;183.10;92.53;;;;;;;;;;5053822;28;20049;-80
2023/01/03 16:59:15;;;;;;;102.72;49.58;;;;;;;;;;5053464;28;20394;-81
2023/01/03 17:02:00;;;;;;;116.65;55.78;;;;;;;;;;5053660;28;20045;-78
2023/01/03 17:04:46;;;;;;;173.45;74.68;;;;;;;;;;5053639;28;20049;-78
2023/01/03 17:07:31;;;;;;;178.70;87.15;;;;;;;;;;5053235;28;20462;-78
2023/01/03 17:10:27;;;;;;;245.52;120.40;;;;;;;;;;5060386;28;20041;-78
2023/01/03 17:13:40;;;;;;;237.68;117.28;;;;;;;;;;5053205;28;20046;-78
2023/01/03 17:16:26;;;;;;;204.40;104.32;;;;;;;;;;5053286;28;20494;-78
2023/01/03 17:19:20;;;;;;;310.23;129.30;;;;;;;;;;5052802;28;20482;-79
2023/01/03 17:22:12;;;;;;;332.80;143.95;;;;;;;;;;5053136;28;20490;-80
2023/01/03 17:24:57;;;;;;;421.77;221.85;;;;;;;;;;5053287;28;20033;-80
2023/01/03 17:27:50;;;;;;;222.65;117.28;;;;;;;;;;5053070;28;20045;-78
2023/01/03 17:30:41;;;;;;;261.48;124.43;;;;;;;;;;5052953;28;20396;-80
2023/01/03 17:33:27;;;;;;;352.25;176.20;;;;;;;;;;5053137;28;20033;-78
2023/01/03 17:36:25;;;;;;;279.83;138.10;;;;;;;;;;5053102;28;20033;-78
2023/01/03 17:39:11;;;;;;;283.45;139.25;;;;;;;;;;5053032;28;20044;-78
2023/01/03 17:42:11;;;;;;;243.13;131.10;;;;;;;;;;5059347;28;20040;-80
2023/01/03 17:51:17;;;;;;;331.67;187.77;;;;;;;;;;5059843;28;20044;-80
2023/01/03 17:54:03;;;;;;;305.88;158.90;;;;;;;;;;5056626;28;20482;-78
2023/01/03 17:56:50;;;;;;;320.45;175.75;;;;;;;;;;5056447;28;20049;-81
2023/01/03 17:59:35;;;;;;;377.08;211.60;;;;;;;;;;5056735;28;20033;-79